sensor_id;sensor_type;location;lat;lon;timestamp;P1;durP1;ratioP1;P2;durP2;ratioP2
12248;SDS011;6187;50.778;6.142;2023-01-05T00:01:37;10.13;;;2.80;;
12248;SDS011;6187;50.778;6.142;2023-01-05T00:04:07;7.80;;;2.67;;
12248;SDS011;6187;50.778;6.142;2023-01-05T00:06:36;9.80;;;3.07;;
12248;SDS011;6187;50.778;6.142;2023-01-05T00:09:05;7.60;;;2.80;;
12248;SDS011;6187;50.778;6.142;2023-01-05T00:11:34;9.97;;;3.13;;
12248;SDS011;6187;50.778;6.142;2023-01-05T00:14:21;6.57;;;2.67;;
12248;SDS011;6187;50.778;6.142;2023-01-05T00:17:08;8.13;;;2.50;;
12248;SDS011;6187;50.778;6.142;2023-01-05T00:19:57;7.03;;;2.33;;
12248;SDS011;6187;50.778;6.142;2023-01-05T00:22:45;10.90;;;3.17;;
12248;SDS011;6187;50.778;6.142;2023-01-05T00:25:14;9.80;;;3.37;;
12248;SDS011;6187;50.778;6.142;2023-01-05T00:27:44;8.60;;;2.53;;
12248;SDS011;6187;50.778;6.142;2023-01-05T00:30:14;7.83;;;2.73;;
12248;SDS011;6187;50.778;6.142;2023-01-05T00:32:43;8.93;;;3.03;;
12248;SDS011;6187;50.778;6.142;2023-01-05T00:35:13;10.57;;;3.20;;
12248;SDS011;6187;50.778;6.142;2023-01-05T00:37:42;8.57;;;2.87;;
12248;SDS011;6187;50.778;6.142;2023-01-05T00:40:11;10.83;;;3.27;;
12248;SDS011;6187;50.778;6.142;2023-01-05T00:42:40;8.03;;;2.40;;
12248;SDS011;6187;50.778;6.142;2023-01-05T00:45:10;9.13;;;2.60;;
12248;SDS011;6187;50.778;6.142;2023-01-05T00:47:38;8.37;;;3.00;;
12248;SDS011;6187;50.778;6.142;2023-01-05T00:50:07;8.70;;;2.50;;
12248;SDS011;6187;50.778;6.142;2023-01-05T00:52:38;6.80;;;2.67;;
12248;SDS011;6187;50.778;6.142;2023-01-05T00:55:06;11.77;;;3.00;;
12248;SDS011;6187;50.778;6.142;2023-01-05T00:57:35;9.00;;;2.97;;
12248;SDS011;6187;50.778;6.142;2023-01-05T01:00:04;10.13;;;3.53;;
12248;SDS011;6187;50.778;6.142;2023-01-05T01:02:33;8.10;;;2.70;;
12248;SDS011;6187;50.778;6.142;2023-01-05T01:05:02;9.23;;;2.80;;
12248;SDS011;6187;50.778;6.142;2023-01-05T01:07:30;11.17;;;2.93;;
12248;SDS011;6187;50.778;6.142;2023-01-05T01:10:00;8.13;;;2.80;;
12248;SDS011;6187;50.778;6.142;2023-01-05T01:12:29;7.83;;;3.17;;
12248;SDS011;6187;50.778;6.142;2023-01-05T01:14:57;13.03;;;3.40;;
12248;SDS011;6187;50.778;6.142;2023-01-05T01:17:26;10.50;;;3.20;;
12248;SDS011;6187;50.778;6.142;2023-01-05T01:19:54;11.03;;;2.63;;
12248;SDS011;6187;50.778;6.142;2023-01-05T01:22:23;8.97;;;2.57;;
12248;SDS011;6187;50.778;6.142;2023-01-05T01:24:52;8.77;;;2.97;;
12248;SDS011;6187;50.778;6.142;2023-01-05T01:27:22;10.50;;;2.67;;
12248;SDS011;6187;50.778;6.142;2023-01-05T01:29:50;7.30;;;2.73;;
12248;SDS011;6187;50.778;6.142;2023-01-05T01:32:19;6.50;;;2.33;;
12248;SDS011;6187;50.778;6.142;2023-01-05T01:34:50;10.37;;;3.20;;
12248;SDS011;6187;50.778;6.142;2023-01-05T01:37:20;10.10;;;2.93;;
12248;SDS011;6187;50.778;6.142;2023-01-05T01:39:49;9.93;;;2.40;;
12248;SDS011;6187;50.778;6.142;2023-01-05T01:42:17;10.97;;;3.00;;
12248;SDS011;6187;50.778;6.142;2023-01-05T01:44:59;8.40;;;3.00;;
12248;SDS011;6187;50.778;6.142;2023-01-05T01:47:32;10.27;;;3.07;;
12248;SDS011;6187;50.778;6.142;2023-01-05T01:50:04;9.63;;;2.60;;
12248;SDS011;6187;50.778;6.142;2023-01-05T01:52:33;11.40;;;3.37;;
12248;SDS011;6187;50.778;6.142;2023-01-05T01:55:03;7.13;;;3.13;;
12248;SDS011;6187;50.778;6.142;2023-01-05T01:57:32;7.40;;;2.17;;
12248;SDS011;6187;50.778;6.142;2023-01-05T02:00:03;10.13;;;3.07;;
12248;SDS011;6187;50.778;6.142;2023-01-05T02:02:33;7.77;;;2.33;;
12248;SDS011;6187;50.778;6.142;2023-01-05T02:05:02;9.27;;;3.13;;
12248;SDS011;6187;50.778;6.142;2023-01-05T02:07:32;9.67;;;3.07;;
12248;SDS011;6187;50.778;6.142;2023-01-05T02:10:01;7.77;;;2.70;;
12248;SDS011;6187;50.778;6.142;2023-01-05T02:12:33;8.50;;;3.07;;
12248;SDS011;6187;50.778;6.142;2023-01-05T02:15:12;7.13;;;2.70;;
12248;SDS011;6187;50.778;6.142;2023-01-05T02:17:43;10.10;;;3.00;;
12248;SDS011;6187;50.778;6.142;2023-01-05T02:20:27;10.43;;;3.47;;
12248;SDS011;6187;50.778;6.142;2023-01-05T02:28:47;10.63;;;3.23;;
12248;SDS011;6187;50.778;6.142;2023-01-05T02:31:20;10.50;;;3.47;;
12248;SDS011;6187;50.778;6.142;2023-01-05T02:33:54;7.40;;;2.50;;
12248;SDS011;6187;50.778;6.142;2023-01-05T02:36:27;12.03;;;3.03;;
12248;SDS011;6187;50.778;6.142;2023-01-05T02:38:57;12.67;;;3.20;;
12248;SDS011;6187;50.778;6.142;2023-01-05T02:41:30;11.30;;;2.83;;
12248;SDS011;6187;50.778;6.142;2023-01-05T02:44:00;10.13;;;2.70;;
12248;SDS011;6187;50.778;6.142;2023-01-05T02:46:30;10.17;;;3.60;;
12248;SDS011;6187;50.778;6.142;2023-01-05T02:48:59;11.07;;;3.17;;
12248;SDS011;6187;50.778;6.142;2023-01-05T02:51:29;10.13;;;3.23;;
12248;SDS011;6187;50.778;6.142;2023-01-05T02:53:59;9.83;;;2.87;;
12248;SDS011;6187;50.778;6.142;2023-01-05T02:56:30;10.43;;;3.03;;
12248;SDS011;6187;50.778;6.142;2023-01-05T02:59:01;9.60;;;3.27;;
12248;SDS011;6187;50.778;6.142;2023-01-05T03:01:31;14.47;;;3.90;;
12248;SDS011;6187;50.778;6.142;2023-01-05T03:04:02;9.93;;;3.60;;
12248;SDS011;6187;50.778;6.142;2023-01-05T03:06:33;11.20;;;3.47;;
12248;SDS011;6187;50.778;6.142;2023-01-05T03:09:04;11.47;;;3.80;;
12248;SDS011;6187;50.778;6.142;2023-01-05T03:11:34;11.30;;;3.53;;
12248;SDS011;6187;50.778;6.142;2023-01-05T03:14:24;10.93;;;3.40;;
12248;SDS011;6187;50.778;6.142;2023-01-05T03:16:56;14.40;;;3.87;;
12248;SDS011;6187;50.778;6.142;2023-01-05T03:19:26;10.63;;;3.30;;
12248;SDS011;6187;50.778;6.142;2023-01-05T03:22:07;11.13;;;3.33;;
12248;SDS011;6187;50.778;6.142;2023-01-05T03:24:55;10.77;;;3.20;;
12248;SDS011;6187;50.778;6.142;2023-01-05T03:27:42;11.63;;;3.50;;
12248;SDS011;6187;50.778;6.142;2023-01-05T03:30:31;12.87;;;3.33;;
12248;SDS011;6187;50.778;6.142;2023-01-05T03:33:22;10.20;;;3.43;;
12248;SDS011;6187;50.778;6.142;2023-01-05T03:36:10;11.53;;;3.60;;
12248;SDS011;6187;50.778;6.142;2023-01-05T03:38:41;12.63;;;3.47;;
12248;SDS011;6187;50.778;6.142;2023-01-05T03:41:10;14.47;;;3.53;;
12248;SDS011;6187;50.778;6.142;2023-01-05T03:43:40;11.03;;;3.33;;
12248;SDS011;6187;50.778;6.142;2023-01-05T03:46:10;9.03;;;3.70;;
12248;SDS011;6187;50.778;6.142;2023-01-05T03:48:40;11.27;;;3.70;;
12248;SDS011;6187;50.778;6.142;2023-01-05T03:51:09;10.87;;;3.77;;
12248;SDS011;6187;50.778;6.142;2023-01-05T03:53:37;9.40;;;3.00;;
12248;SDS011;6187;50.778;6.142;2023-01-05T03:56:06;11.93;;;3.83;;
12248;SDS011;6187;50.778;6.142;2023-01-05T03:58:35;10.93;;;3.53;;
12248;SDS011;6187;50.778;6.142;2023-01-05T04:01:03;11.40;;;3.43;;
12248;SDS011;6187;50.778;6.142;2023-01-05T04:03:32;13.47;;;4.07;;
12248;SDS011;6187;50.778;6.142;2023-01-05T04:06:03;13.43;;;3.50;;
12248;SDS011;6187;50.778;6.142;2023-01-05T04:08:31;11.30;;;3.23;;
12248;SDS011;6187;50.778;6.142;2023-01-05T04:11:08;12.40;;;4.13;;
12248;SDS011;6187;50.778;6.142;2023-01-05T04:13:37;12.23;;;3.83;;
12248;SDS011;6187;50.778;6.142;2023-01-05T04:16:06;12.23;;;3.60;;
12248;SDS011;6187;50.778;6.142;2023-01-05T04:18:35;9.73;;;3.37;;
12248;SDS011;6187;50.778;6.142;2023-01-05T04:21:05;10.70;;;3.67;;
12248;SDS011;6187;50.778;6.142;2023-01-05T04:23:34;11.00;;;3.40;;
12248;SDS011;6187;50.778;6.142;2023-01-05T04:26:03;11.67;;;3.60;;
12248;SDS011;6187;50.778;6.142;2023-01-05T04:28:31;11.53;;;3.97;;
12248;SDS011;6187;50.778;6.142;2023-01-05T04:31:00;12.77;;;3.97;;
12248;SDS011;6187;50.778;6.142;2023-01-05T04:33:29;12.47;;;3.47;;
12248;SDS011;6187;50.778;6.142;2023-01-05T04:35:57;11.93;;;3.57;;
12248;SDS011;6187;50.778;6.142;2023-01-05T04:38:27;13.03;;;3.40;;
12248;SDS011;6187;50.778;6.142;2023-01-05T04:40:56;10.07;;;3.57;;
12248;SDS011;6187;50.778;6.142;2023-01-05T04:43:25;9.93;;;3.27;;
12248;SDS011;6187;50.778;6.142;2023-01-05T04:45:53;11.00;;;3.50;;
12248;SDS011;6187;50.778;6.142;2023-01-05T04:48:22;12.00;;;3.40;;
12248;SDS011;6187;50.778;6.142;2023-01-05T04:50:51;11.77;;;3.60;;
12248;SDS011;6187;50.778;6.142;2023-01-05T04:53:20;9.17;;;3.13;;
12248;SDS011;6187;50.778;6.142;2023-01-05T04:55:51;9.70;;;3.10;;
12248;SDS011;6187;50.778;6.142;2023-01-05T04:58:19;13.90;;;3.23;;
12248;SDS011;6187;50.778;6.142;2023-01-05T05:00:48;12.80;;;4.00;;
12248;SDS011;6187;50.778;6.142;2023-01-05T05:03:16;11.73;;;3.40;;
12248;SDS011;6187;50.778;6.142;2023-01-05T05:05:45;10.40;;;3.33;;
12248;SDS011;6187;50.778;6.142;2023-01-05T05:08:14;15.03;;;3.70;;
12248;SDS011;6187;50.778;6.142;2023-01-05T05:10:42;11.93;;;3.60;;
12248;SDS011;6187;50.778;6.142;2023-01-05T05:13:12;9.23;;;3.03;;
12248;SDS011;6187;50.778;6.142;2023-01-05T05:15:42;12.30;;;3.33;;
12248;SDS011;6187;50.778;6.142;2023-01-05T05:18:11;14.33;;;3.53;;
12248;SDS011;6187;50.778;6.142;2023-01-05T05:20:40;13.93;;;3.63;;
12248;SDS011;6187;50.778;6.142;2023-01-05T05:23:10;10.53;;;3.33;;
12248;SDS011;6187;50.778;6.142;2023-01-05T05:25:38;14.77;;;3.83;;
12248;SDS011;6187;50.778;6.142;2023-01-05T05:28:07;12.23;;;3.63;;
12248;SDS011;6187;50.778;6.142;2023-01-05T05:30:37;14.93;;;3.40;;
12248;SDS011;6187;50.778;6.142;2023-01-05T05:33:05;16.00;;;4.00;;
12248;SDS011;6187;50.778;6.142;2023-01-05T05:35:34;9.23;;;3.43;;
12248;SDS011;6187;50.778;6.142;2023-01-05T05:38:03;9.73;;;3.20;;
12248;SDS011;6187;50.778;6.142;2023-01-05T05:40:31;9.30;;;3.17;;
12248;SDS011;6187;50.778;6.142;2023-01-05T05:43:00;13.00;;;4.03;;
12248;SDS011;6187;50.778;6.142;2023-01-05T05:45:28;15.03;;;4.00;;
12248;SDS011;6187;50.778;6.142;2023-01-05T05:47:58;11.00;;;3.67;;
12248;SDS011;6187;50.778;6.142;2023-01-05T05:50:27;14.10;;;3.67;;
12248;SDS011;6187;50.778;6.142;2023-01-05T05:52:56;16.90;;;3.97;;
12248;SDS011;6187;50.778;6.142;2023-01-05T05:55:24;11.93;;;3.27;;
12248;SDS011;6187;50.778;6.142;2023-01-05T05:57:53;11.50;;;3.83;;
12248;SDS011;6187;50.778;6.142;2023-01-05T06:00:22;15.23;;;3.43;;
12248;SDS011;6187;50.778;6.142;2023-01-05T06:02:50;11.47;;;3.60;;
12248;SDS011;6187;50.778;6.142;2023-01-05T06:05:21;11.27;;;3.30;;
12248;SDS011;6187;50.778;6.142;2023-01-05T06:07:49;11.87;;;3.60;;
12248;SDS011;6187;50.778;6.142;2023-01-05T06:10:18;10.17;;;4.17;;
12248;SDS011;6187;50.778;6.142;2023-01-05T06:12:47;13.60;;;4.27;;
12248;SDS011;6187;50.778;6.142;2023-01-05T06:15:15;13.40;;;3.90;;
12248;SDS011;6187;50.778;6.142;2023-01-05T06:17:44;14.30;;;3.77;;
12248;SDS011;6187;50.778;6.142;2023-01-05T06:20:14;15.43;;;4.00;;
12248;SDS011;6187;50.778;6.142;2023-01-05T06:22:44;12.63;;;4.00;;
12248;SDS011;6187;50.778;6.142;2023-01-05T06:25:12;14.13;;;4.07;;
12248;SDS011;6187;50.778;6.142;2023-01-05T06:27:41;11.93;;;3.83;;
12248;SDS011;6187;50.778;6.142;2023-01-05T06:30:10;12.80;;;4.33;;
12248;SDS011;6187;50.778;6.142;2023-01-05T06:32:39;12.80;;;3.40;;
12248;SDS011;6187;50.778;6.142;2023-01-05T06:35:07;12.77;;;3.63;;
12248;SDS011;6187;50.778;6.142;2023-01-05T06:37:36;12.13;;;3.77;;
12248;SDS011;6187;50.778;6.142;2023-01-05T06:40:07;15.67;;;4.20;;
12248;SDS011;6187;50.778;6.142;2023-01-05T06:42:37;15.50;;;5.40;;
12248;SDS011;6187;50.778;6.142;2023-01-05T06:45:06;13.30;;;4.30;;
12248;SDS011;6187;50.778;6.142;2023-01-05T06:47:35;13.47;;;4.43;;
12248;SDS011;6187;50.778;6.142;2023-01-05T06:50:04;13.20;;;4.33;;
12248;SDS011;6187;50.778;6.142;2023-01-05T06:52:32;13.10;;;4.10;;
12248;SDS011;6187;50.778;6.142;2023-01-05T06:55:07;12.80;;;3.67;;
12248;SDS011;6187;50.778;6.142;2023-01-05T06:57:36;13.00;;;3.77;;
12248;SDS011;6187;50.778;6.142;2023-01-05T07:00:06;14.70;;;3.80;;
12248;SDS011;6187;50.778;6.142;2023-01-05T07:02:35;17.87;;;5.20;;
12248;SDS011;6187;50.778;6.142;2023-01-05T07:05:03;13.13;;;4.23;;
12248;SDS011;6187;50.778;6.142;2023-01-05T07:07:32;13.67;;;4.27;;
12248;SDS011;6187;50.778;6.142;2023-01-05T07:10:01;14.57;;;4.10;;
12248;SDS011;6187;50.778;6.142;2023-01-05T07:12:31;13.60;;;3.97;;
12248;SDS011;6187;50.778;6.142;2023-01-05T07:14:59;15.67;;;4.30;;
12248;SDS011;6187;50.778;6.142;2023-01-05T07:17:28;19.43;;;4.17;;
12248;SDS011;6187;50.778;6.142;2023-01-05T07:19:57;11.80;;;4.40;;
12248;SDS011;6187;50.778;6.142;2023-01-05T07:22:25;13.83;;;4.27;;
12248;SDS011;6187;50.778;6.142;2023-01-05T07:24:56;10.77;;;3.60;;
12248;SDS011;6187;50.778;6.142;2023-01-05T07:27:25;16.13;;;5.37;;
12248;SDS011;6187;50.778;6.142;2023-01-05T07:29:55;14.53;;;5.13;;
12248;SDS011;6187;50.778;6.142;2023-01-05T07:32:23;15.77;;;4.03;;
12248;SDS011;6187;50.778;6.142;2023-01-05T07:34:52;12.67;;;3.63;;
12248;SDS011;6187;50.778;6.142;2023-01-05T07:37:22;14.60;;;3.90;;
12248;SDS011;6187;50.778;6.142;2023-01-05T07:39:51;11.17;;;3.63;;
12248;SDS011;6187;50.778;6.142;2023-01-05T07:42:19;13.90;;;3.93;;
12248;SDS011;6187;50.778;6.142;2023-01-05T07:44:48;15.77;;;5.03;;
12248;SDS011;6187;50.778;6.142;2023-01-05T07:47:18;14.43;;;3.87;;
12248;SDS011;6187;50.778;6.142;2023-01-05T07:49:48;16.47;;;4.63;;
12248;SDS011;6187;50.778;6.142;2023-01-05T07:52:16;16.47;;;4.57;;
12248;SDS011;6187;50.778;6.142;2023-01-05T07:54:45;13.00;;;4.43;;
12248;SDS011;6187;50.778;6.142;2023-01-05T07:57:14;16.70;;;4.40;;
12248;SDS011;6187;50.778;6.142;2023-01-05T07:59:42;11.67;;;4.03;;
12248;SDS011;6187;50.778;6.142;2023-01-05T08:02:11;15.00;;;4.07;;
12248;SDS011;6187;50.778;6.142;2023-01-05T08:04:41;15.03;;;4.57;;
12248;SDS011;6187;50.778;6.142;2023-01-05T08:07:09;15.87;;;4.43;;
12248;SDS011;6187;50.778;6.142;2023-01-05T08:09:40;13.23;;;4.17;;
12248;SDS011;6187;50.778;6.142;2023-01-05T08:12:26;13.57;;;4.60;;
12248;SDS011;6187;50.778;6.142;2023-01-05T08:14:56;16.60;;;4.47;;
12248;SDS011;6187;50.778;6.142;2023-01-05T08:17:24;15.63;;;4.40;;
12248;SDS011;6187;50.778;6.142;2023-01-05T08:19:54;15.97;;;4.77;;
12248;SDS011;6187;50.778;6.142;2023-01-05T08:22:23;13.70;;;4.30;;
12248;SDS011;6187;50.778;6.142;2023-01-05T08:24:52;16.23;;;5.57;;
12248;SDS011;6187;50.778;6.142;2023-01-05T08:27:20;17.10;;;4.70;;
12248;SDS011;6187;50.778;6.142;2023-01-05T08:29:49;17.77;;;4.63;;
12248;SDS011;6187;50.778;6.142;2023-01-05T08:32:18;12.27;;;4.20;;
12248;SDS011;6187;50.778;6.142;2023-01-05T08:34:46;12.87;;;3.67;;
12248;SDS011;6187;50.778;6.142;2023-01-05T08:37:22;14.77;;;4.47;;
12248;SDS011;6187;50.778;6.142;2023-01-05T08:39:51;12.70;;;4.60;;
12248;SDS011;6187;50.778;6.142;2023-01-05T08:42:34;12.52;;;4.50;;
12248;SDS011;6187;50.778;6.142;2023-01-05T08:45:03;15.83;;;4.50;;
12248;SDS011;6187;50.778;6.142;2023-01-05T08:47:31;15.10;;;5.33;;
12248;SDS011;6187;50.778;6.142;2023-01-05T08:50:00;16.13;;;4.70;;
12248;SDS011;6187;50.778;6.142;2023-01-05T08:52:30;15.07;;;4.40;;
12248;SDS011;6187;50.778;6.142;2023-01-05T08:54:59;14.07;;;4.20;;
12248;SDS011;6187;50.778;6.142;2023-01-05T08:57:28;14.90;;;4.37;;
12248;SDS011;6187;50.778;6.142;2023-01-05T08:59:57;15.93;;;4.73;;
12248;SDS011;6187;50.778;6.142;2023-01-05T09:02:25;14.33;;;4.67;;
12248;SDS011;6187;50.778;6.142;2023-01-05T09:04:54;12.40;;;4.47;;
12248;SDS011;6187;50.778;6.142;2023-01-05T09:07:23;15.57;;;4.40;;
12248;SDS011;6187;50.778;6.142;2023-01-05T09:09:55;17.50;;;4.43;;
12248;SDS011;6187;50.778;6.142;2023-01-05T09:12:23;14.63;;;4.70;;
12248;SDS011;6187;50.778;6.142;2023-01-05T09:14:58;17.07;;;5.23;;
12248;SDS011;6187;50.778;6.142;2023-01-05T09:17:27;16.43;;;5.23;;
12248;SDS011;6187;50.778;6.142;2023-01-05T09:19:56;16.83;;;4.33;;
12248;SDS011;6187;50.778;6.142;2023-01-05T09:22:24;14.93;;;4.07;;
12248;SDS011;6187;50.778;6.142;2023-01-05T09:24:54;13.73;;;4.20;;
12248;SDS011;6187;50.778;6.142;2023-01-05T09:27:23;17.10;;;4.60;;
12248;SDS011;6187;50.778;6.142;2023-01-05T09:29:51;15.70;;;4.63;;
12248;SDS011;6187;50.778;6.142;2023-01-05T09:32:20;15.13;;;4.97;;
12248;SDS011;6187;50.778;6.142;2023-01-05T09:34:49;15.77;;;5.03;;
12248;SDS011;6187;50.778;6.142;2023-01-05T09:37:18;15.00;;;4.67;;
12248;SDS011;6187;50.778;6.142;2023-01-05T09:39:46;15.57;;;4.23;;
12248;SDS011;6187;50.778;6.142;2023-01-05T09:42:18;11.87;;;4.00;;
12248;SDS011;6187;50.778;6.142;2023-01-05T09:44:48;12.90;;;4.13;;
12248;SDS011;6187;50.778;6.142;2023-01-05T09:47:25;11.33;;;4.20;;
12248;SDS011;6187;50.778;6.142;2023-01-05T09:49:54;11.87;;;4.20;;
12248;SDS011;6187;50.778;6.142;2023-01-05T09:52:24;14.27;;;4.10;;
12248;SDS011;6187;50.778;6.142;2023-01-05T09:54:58;12.77;;;4.47;;
12248;SDS011;6187;50.778;6.142;2023-01-05T09:57:28;12.90;;;4.57;;
12248;SDS011;6187;50.778;6.142;2023-01-05T09:59:58;12.97;;;4.90;;
12248;SDS011;6187;50.778;6.142;2023-01-05T10:02:29;13.50;;;4.57;;
12248;SDS011;6187;50.778;6.142;2023-01-05T10:05:00;12.10;;;4.20;;
12248;SDS011;6187;50.778;6.142;2023-01-05T10:07:33;10.60;;;4.27;;
12248;SDS011;6187;50.778;6.142;2023-01-05T10:10:05;10.43;;;3.60;;
12248;SDS011;6187;50.778;6.142;2023-01-05T10:12:39;10.50;;;4.20;;
12248;SDS011;6187;50.778;6.142;2023-01-05T10:15:27;10.60;;;3.73;;
12248;SDS011;6187;50.778;6.142;2023-01-05T10:17:57;13.93;;;4.33;;
12248;SDS011;6187;50.778;6.142;2023-01-05T10:20:31;12.43;;;4.27;;
12248;SDS011;6187;50.778;6.142;2023-01-05T10:23:08;13.60;;;4.30;;
12248;SDS011;6187;50.778;6.142;2023-01-05T10:25:40;15.47;;;4.73;;
12248;SDS011;6187;50.778;6.142;2023-01-05T10:28:18;12.20;;;4.23;;
12248;SDS011;6187;50.778;6.142;2023-01-05T10:30:50;10.13;;;3.27;;
12248;SDS011;6187;50.778;6.142;2023-01-05T10:33:24;12.77;;;3.63;;
12248;SDS011;6187;50.778;6.142;2023-01-05T10:36:10;12.40;;;4.30;;
12248;SDS011;6187;50.778;6.142;2023-01-05T10:38:54;11.63;;;4.00;;
12248;SDS011;6187;50.778;6.142;2023-01-05T10:41:27;14.70;;;4.20;;
12248;SDS011;6187;50.778;6.142;2023-01-05T10:44:26;9.10;;;3.90;;
12248;SDS011;6187;50.778;6.142;2023-01-05T10:46:59;10.73;;;3.40;;
12248;SDS011;6187;50.778;6.142;2023-01-05T10:49:29;11.87;;;3.67;;
12248;SDS011;6187;50.778;6.142;2023-01-05T10:51:59;14.23;;;4.30;;
12248;SDS011;6187;50.778;6.142;2023-01-05T10:54:31;13.67;;;4.77;;
12248;SDS011;6187;50.778;6.142;2023-01-05T10:59:59;11.07;;;4.05;;
12248;SDS011;6187;50.778;6.142;2023-01-05T11:02:29;12.07;;;4.00;;
12248;SDS011;6187;50.778;6.142;2023-01-05T11:05:01;13.30;;;4.10;;
12248;SDS011;6187;50.778;6.142;2023-01-05T11:07:31;11.77;;;4.03;;
12248;SDS011;6187;50.778;6.142;2023-01-05T11:10:00;10.90;;;4.47;;
12248;SDS011;6187;50.778;6.142;2023-01-05T11:12:29;15.60;;;4.30;;
12248;SDS011;6187;50.778;6.142;2023-01-05T11:14:59;11.53;;;4.07;;
12248;SDS011;6187;50.778;6.142;2023-01-05T11:17:28;15.43;;;5.13;;
12248;SDS011;6187;50.778;6.142;2023-01-05T11:19:57;11.90;;;4.03;;
12248;SDS011;6187;50.778;6.142;2023-01-05T11:22:30;13.37;;;4.27;;
12248;SDS011;6187;50.778;6.142;2023-01-05T11:25:12;13.23;;;4.17;;
12248;SDS011;6187;50.778;6.142;2023-01-05T11:27:40;14.03;;;4.00;;
12248;SDS011;6187;50.778;6.142;2023-01-05T11:30:20;12.33;;;4.27;;
12248;SDS011;6187;50.778;6.142;2023-01-05T11:32:51;9.77;;;4.00;;
12248;SDS011;6187;50.778;6.142;2023-01-05T11:35:19;10.73;;;4.17;;
12248;SDS011;6187;50.778;6.142;2023-01-05T11:37:49;11.90;;;3.90;;
12248;SDS011;6187;50.778;6.142;2023-01-05T11:40:18;9.33;;;3.70;;
12248;SDS011;6187;50.778;6.142;2023-01-05T11:42:47;11.70;;;3.93;;
12248;SDS011;6187;50.778;6.142;2023-01-05T11:45:17;14.40;;;4.97;;
12248;SDS011;6187;50.778;6.142;2023-01-05T11:47:49;15.60;;;4.50;;
12248;SDS011;6187;50.778;6.142;2023-01-05T11:50:19;11.17;;;3.87;;
12248;SDS011;6187;50.778;6.142;2023-01-05T11:52:50;11.83;;;4.40;;
12248;SDS011;6187;50.778;6.142;2023-01-05T11:55:27;14.77;;;3.97;;
12248;SDS011;6187;50.778;6.142;2023-01-05T11:58:13;10.13;;;3.97;;
12248;SDS011;6187;50.778;6.142;2023-01-05T12:00:49;11.80;;;4.23;;
12248;SDS011;6187;50.778;6.142;2023-01-05T12:03:26;13.00;;;3.87;;
12248;SDS011;6187;50.778;6.142;2023-01-05T12:05:56;14.63;;;4.50;;
12248;SDS011;6187;50.778;6.142;2023-01-05T12:08:26;15.30;;;4.63;;
12248;SDS011;6187;50.778;6.142;2023-01-05T12:11:02;13.07;;;4.20;;
12248;SDS011;6187;50.778;6.142;2023-01-05T12:16:20;11.40;;;3.90;;
12248;SDS011;6187;50.778;6.142;2023-01-05T12:19:07;10.33;;;3.83;;
12248;SDS011;6187;50.778;6.142;2023-01-05T12:21:37;11.57;;;3.80;;
12248;SDS011;6187;50.778;6.142;2023-01-05T12:24:20;16.73;;;4.40;;
12248;SDS011;6187;50.778;6.142;2023-01-05T12:26:54;16.40;;;5.07;;
12248;SDS011;6187;50.778;6.142;2023-01-05T12:29:29;14.13;;;4.33;;
12248;SDS011;6187;50.778;6.142;2023-01-05T12:32:24;12.77;;;3.80;;
12248;SDS011;6187;50.778;6.142;2023-01-05T12:35:20;11.90;;;3.83;;
12248;SDS011;6187;50.778;6.142;2023-01-05T12:37:58;11.80;;;3.83;;
12248;SDS011;6187;50.778;6.142;2023-01-05T12:40:31;13.13;;;5.10;;
12248;SDS011;6187;50.778;6.142;2023-01-05T12:43:06;11.93;;;4.43;;
12248;SDS011;6187;50.778;6.142;2023-01-05T12:48:29;12.30;;;3.90;;
12248;SDS011;6187;50.778;6.142;2023-01-05T12:51:03;11.67;;;3.90;;
12248;SDS011;6187;50.778;6.142;2023-01-05T12:53:36;13.60;;;4.33;;
12248;SDS011;6187;50.778;6.142;2023-01-05T12:56:10;11.40;;;3.30;;
12248;SDS011;6187;50.778;6.142;2023-01-05T12:58:42;11.63;;;3.60;;
12248;SDS011;6187;50.778;6.142;2023-01-05T13:01:20;9.87;;;3.47;;
12248;SDS011;6187;50.778;6.142;2023-01-05T13:03:51;9.37;;;3.60;;
12248;SDS011;6187;50.778;6.142;2023-01-05T13:06:24;13.07;;;3.93;;
12248;SDS011;6187;50.778;6.142;2023-01-05T13:08:54;13.37;;;4.53;;
12248;SDS011;6187;50.778;6.142;2023-01-05T13:11:26;15.50;;;5.23;;
12248;SDS011;6187;50.778;6.142;2023-01-05T13:13:57;11.17;;;3.77;;
12248;SDS011;6187;50.778;6.142;2023-01-05T13:16:28;14.83;;;4.50;;
12248;SDS011;6187;50.778;6.142;2023-01-05T13:19:00;11.80;;;3.90;;
12248;SDS011;6187;50.778;6.142;2023-01-05T13:21:31;12.27;;;4.17;;
12248;SDS011;6187;50.778;6.142;2023-01-05T13:24:01;13.50;;;4.37;;
12248;SDS011;6187;50.778;6.142;2023-01-05T13:26:30;16.70;;;5.00;;
12248;SDS011;6187;50.778;6.142;2023-01-05T13:29:04;12.37;;;4.10;;
12248;SDS011;6187;50.778;6.142;2023-01-05T13:31:51;13.47;;;4.10;;
12248;SDS011;6187;50.778;6.142;2023-01-05T13:34:40;12.60;;;4.20;;
12248;SDS011;6187;50.778;6.142;2023-01-05T13:37:28;11.43;;;4.10;;
12248;SDS011;6187;50.778;6.142;2023-01-05T13:40:15;12.97;;;4.07;;
12248;SDS011;6187;50.778;6.142;2023-01-05T13:42:59;8.30;;;3.10;;
12248;SDS011;6187;50.778;6.142;2023-01-05T13:45:42;13.53;;;4.37;;
12248;SDS011;6187;50.778;6.142;2023-01-05T13:48:24;12.30;;;4.07;;
12248;SDS011;6187;50.778;6.142;2023-01-05T13:53:55;13.17;;;3.97;;
12248;SDS011;6187;50.778;6.142;2023-01-05T13:56:25;13.50;;;4.93;;
12248;SDS011;6187;50.778;6.142;2023-01-05T13:58:57;14.20;;;4.60;;
12248;SDS011;6187;50.778;6.142;2023-01-05T14:01:33;13.40;;;4.57;;
12248;SDS011;6187;50.778;6.142;2023-01-05T14:04:02;14.27;;;4.00;;
12248;SDS011;6187;50.778;6.142;2023-01-05T14:06:33;13.57;;;4.47;;
12248;SDS011;6187;50.778;6.142;2023-01-05T14:09:05;12.93;;;4.53;;
12248;SDS011;6187;50.778;6.142;2023-01-05T14:11:34;11.07;;;4.30;;
12248;SDS011;6187;50.778;6.142;2023-01-05T14:14:04;12.13;;;4.07;;
12248;SDS011;6187;50.778;6.142;2023-01-05T14:19:48;12.47;;;3.83;;
12248;SDS011;6187;50.778;6.142;2023-01-05T14:22:21;10.13;;;3.90;;
12248;SDS011;6187;50.778;6.142;2023-01-05T14:24:51;10.17;;;3.67;;
12248;SDS011;6187;50.778;6.142;2023-01-05T14:27:22;12.03;;;4.20;;
12248;SDS011;6187;50.778;6.142;2023-01-05T14:29:57;14.37;;;4.47;;
12248;SDS011;6187;50.778;6.142;2023-01-05T14:32:26;14.10;;;4.23;;
12248;SDS011;6187;50.778;6.142;2023-01-05T14:34:55;12.57;;;4.23;;
12248;SDS011;6187;50.778;6.142;2023-01-05T14:37:26;14.90;;;4.63;;
12248;SDS011;6187;50.778;6.142;2023-01-05T14:39:56;11.87;;;4.60;;
12248;SDS011;6187;50.778;6.142;2023-01-05T14:42:35;11.70;;;4.17;;
12248;SDS011;6187;50.778;6.142;2023-01-05T14:45:06;10.23;;;3.90;;
12248;SDS011;6187;50.778;6.142;2023-01-05T14:47:37;11.97;;;4.57;;
12248;SDS011;6187;50.778;6.142;2023-01-05T14:52:51;19.07;;;4.77;;
12248;SDS011;6187;50.778;6.142;2023-01-05T14:55:23;13.53;;;4.00;;
12248;SDS011;6187;50.778;6.142;2023-01-05T14:58:07;12.70;;;4.33;;
12248;SDS011;6187;50.778;6.142;2023-01-05T15:00:46;11.90;;;4.47;;
12248;SDS011;6187;50.778;6.142;2023-01-05T15:03:18;14.17;;;4.27;;
12248;SDS011;6187;50.778;6.142;2023-01-05T15:06:02;14.57;;;4.43;;
12248;SDS011;6187;50.778;6.142;2023-01-05T15:11:30;11.10;;;3.47;;
12248;SDS011;6187;50.778;6.142;2023-01-05T15:17:11;9.37;;;3.57;;
12248;SDS011;6187;50.778;6.142;2023-01-05T15:19:46;14.57;;;3.97;;
12248;SDS011;6187;50.778;6.142;2023-01-05T15:22:21;9.53;;;3.63;;
12248;SDS011;6187;50.778;6.142;2023-01-05T15:25:28;8.53;;;3.47;;
12248;SDS011;6187;50.778;6.142;2023-01-05T15:28:08;9.87;;;3.60;;
12248;SDS011;6187;50.778;6.142;2023-01-05T15:30:46;11.57;;;4.43;;
12248;SDS011;6187;50.778;6.142;2023-01-05T15:33:20;12.70;;;4.10;;
12248;SDS011;6187;50.778;6.142;2023-01-05T15:35:52;15.57;;;4.37;;
12248;SDS011;6187;50.778;6.142;2023-01-05T15:38:23;12.40;;;4.40;;
12248;SDS011;6187;50.778;6.142;2023-01-05T15:40:56;14.77;;;4.70;;
12248;SDS011;6187;50.778;6.142;2023-01-05T15:43:27;13.67;;;4.77;;
12248;SDS011;6187;50.778;6.142;2023-01-05T15:45:55;9.90;;;3.93;;
12248;SDS011;6187;50.778;6.142;2023-01-05T15:48:26;9.07;;;3.23;;